createdAt,value
2023-02-19T00:00:02.474Z,94.4
2023-02-19T00:10:02.430Z,93.8
2023-02-19T00:20:02.431Z,93
2023-02-19T00:30:02.364Z,92.6
2023-02-19T00:40:02.387Z,92.6
2023-02-19T00:50:02.348Z,93.2
2023-02-19T01:00:02.401Z,93.2
2023-02-19T01:10:02.270Z,92.8
2023-02-19T01:20:02.249Z,91.8
2023-02-19T01:30:02.201Z,91.4
2023-02-19T01:40:02.176Z,90.8
2023-02-19T01:50:02.149Z,89.6
2023-02-19T02:00:02.131Z,88.8
2023-02-19T02:10:02.132Z,88.8
2023-02-19T02:20:02.071Z,88.8
2023-02-19T02:30:02.110Z,88
2023-02-19T02:40:02.021Z,87.8
2023-02-19T02:50:01.971Z,88.4
2023-02-19T03:00:02.026Z,87.8
2023-02-19T03:10:01.914Z,87.6
2023-02-19T03:20:01.885Z,87.8
2023-02-19T03:30:01.842Z,88
2023-02-19T03:40:01.835Z,87.8
2023-02-19T03:50:01.841Z,87.4
2023-02-19T04:00:01.778Z,86.8
2023-02-19T04:10:01.755Z,86.6
2023-02-19T04:20:01.715Z,86.8
2023-02-19T04:30:01.681Z,86.8
2023-02-19T04:40:01.675Z,87.2
2023-02-19T04:50:01.630Z,88
2023-02-19T05:00:01.592Z,89.6
2023-02-19T05:10:01.570Z,90.8
2023-02-19T05:20:01.546Z,90.8
2023-02-19T05:30:01.513Z,90.4
2023-02-19T05:40:01.468Z,91
2023-02-19T05:50:01.443Z,90.8
2023-02-19T06:00:01.417Z,90.8
2023-02-19T06:10:01.397Z,90
2023-02-19T06:20:01.355Z,89.4
2023-02-19T06:30:01.335Z,89.6
2023-02-19T06:40:01.320Z,89.4
2023-02-19T06:50:01.314Z,89.4
2023-02-19T07:00:01.257Z,89.2
2023-02-19T07:10:01.219Z,88.8
2023-02-19T07:20:01.203Z,89
2023-02-19T07:30:01.233Z,89
2023-02-19T07:40:01.141Z,88.8
2023-02-19T07:50:01.113Z,88.6
2023-02-19T08:00:01.082Z,88.6
2023-02-19T08:10:01.160Z,89
2023-02-19T08:20:01.032Z,89.2
2023-02-19T08:30:01.099Z,89.6
2023-02-19T08:40:00.956Z,89.4
2023-02-19T08:50:00.950Z,89.4
2023-02-19T09:00:00.894Z,89.2
2023-02-19T09:10:00.880Z,88.4
2023-02-19T09:20:00.843Z,87.4
2023-02-19T09:30:00.839Z,86
2023-02-19T09:40:00.781Z,84.6
2023-02-19T09:50:00.755Z,84.2
2023-02-19T10:00:00.766Z,83.8
2023-02-19T10:10:00.732Z,84.6
2023-02-19T10:20:00.686Z,85.4
2023-02-19T10:30:00.776Z,87
2023-02-19T10:40:00.624Z,88
2023-02-19T10:50:00.626Z,89.6
2023-02-19T11:00:00.633Z,89.4
2023-02-19T11:10:00.565Z,89
2023-02-19T11:20:00.513Z,89.8
2023-02-19T11:30:00.474Z,90.2
2023-02-19T11:40:00.500Z,87.8
2023-02-19T11:50:00.499Z,85.8
2023-02-19T12:00:00.388Z,83.4
2023-02-19T12:10:00.367Z,82.8
2023-02-19T12:20:00.317Z,83.6
2023-02-19T12:30:00.320Z,83
2023-02-19T12:40:00.281Z,81.4
2023-02-19T12:50:00.417Z,79.8
2023-02-19T13:00:00.267Z,79.2
2023-02-19T13:10:00.215Z,78.6
2023-02-19T13:20:00.169Z,79.2
2023-02-19T13:30:00.147Z,79.4
2023-02-19T13:40:00.098Z,78.8
2023-02-19T13:50:00.107Z,79.4
2023-02-19T14:00:00.055Z,79.6
2023-02-19T14:10:00.042Z,79.2
2023-02-19T14:20:00.007Z,81.2
2023-02-19T14:29:59.967Z,82.6
2023-02-19T14:39:59.900Z,84.2
2023-02-19T14:49:59.881Z,85.6
2023-02-19T14:59:59.933Z,87.2
2023-02-19T15:09:59.905Z,89
2023-02-19T15:19:59.904Z,90.2
2023-02-19T15:29:59.898Z,90.8
2023-02-19T15:39:59.810Z,90.2
2023-02-19T15:49:59.713Z,88.8
2023-02-19T15:59:59.684Z,88.2
2023-02-19T16:09:59.676Z,87.4
2023-02-19T16:19:59.612Z,86.2
2023-02-19T16:29:59.644Z,86.6
2023-02-19T16:39:59.576Z,87
2023-02-19T16:49:59.532Z,86.6
2023-02-19T16:59:59.567Z,85.6
2023-02-19T17:09:59.481Z,84.6
2023-02-19T17:19:59.461Z,83.8
2023-02-19T17:29:59.431Z,84.2
2023-02-19T17:39:59.404Z,83.4
2023-02-19T17:49:59.353Z,81.4
2023-02-19T17:59:59.347Z,80.6
2023-02-19T18:09:59.299Z,78.8
2023-02-19T18:19:59.301Z,78.8
2023-02-19T18:29:59.253Z,78.4
2023-02-19T18:39:59.238Z,77.6
2023-02-19T18:49:59.215Z,76.8
2023-02-19T18:59:59.183Z,76.6
2023-02-19T19:09:59.138Z,76.6
2023-02-19T19:19:59.128Z,76.6
2023-02-19T19:29:59.098Z,76.6
2023-02-19T19:39:59.104Z,76.6
2023-02-19T19:49:59.100Z,77
2023-02-19T19:59:59.038Z,75.8
2023-02-19T20:09:59.006Z,75.8
2023-02-19T20:19:58.938Z,76.2
2023-02-19T20:29:58.922Z,76.2
2023-02-19T20:39:58.884Z,76.2
2023-02-19T20:49:58.862Z,76
2023-02-19T20:59:58.837Z,76.4
2023-02-19T21:09:58.832Z,76.8
2023-02-19T21:19:58.789Z,77.2
2023-02-19T21:29:58.734Z,77.6
2023-02-19T21:39:58.750Z,78.6
2023-02-19T21:49:58.672Z,78.8
2023-02-19T21:59:58.677Z,79.4
2023-02-19T22:09:58.651Z,79.6
2023-02-19T22:19:58.608Z,80.8
2023-02-19T22:29:58.584Z,81.6
2023-02-19T22:39:58.568Z,82.4
2023-02-19T22:49:58.589Z,83.4
2023-02-19T22:59:58.523Z,85.2
2023-02-19T23:09:58.479Z,86.6
2023-02-19T23:19:58.441Z,88
2023-02-19T23:29:58.433Z,88.4
2023-02-19T23:39:58.403Z,89.2
2023-02-19T23:49:58.360Z,90
2023-02-19T23:59:58.338Z,90.4
